^^
Meteo Knjazevac Station Historical Data
Daily Summary for June 21, 2022 Units:  English    Metric   Both
Daily Weekly Monthly Yearly Custom
  High: Low: Average:
Temperature: 77.7 °F 56.3 °F 62.4 °F
Dew Point: 66.7 °F 53.7 °F 57.7 °F
Humidity: 93% 68% 85%
Wind Speed: 9mph 0mph 2.1mph
Wind Gust: 14mph - -
Wind- - SW
Pressure: 29.95 in 29.92 in -
Precipitation: 0.01 in    
Historical Graphs
 
 
Tabular Data for June 21, 2022
Time Temperature Dew Point Pressure Wind Wind Speed Wind Gust Humidity Rainfall Rate (Hourly) solar Conditions
00:00 62.2 °F 57.3 °F 29.93 in WNW 3 mph 5 mph 84% 0.00 in 0 W/m2
00:10 62.1 °F 57.2 °F 29.93 in West 1 mph 4 mph 84% 0.00 in 0 W/m2
00:20 61.8 °F 56.9 °F 29.94 in Calm   2 mph 84% 0.00 in 0 W/m2
00:30 61.5 °F 56.6 °F 29.93 in Calm   2 mph 84% 0.00 in 0 W/m2
00:40 61.3 °F 56.8 °F 29.94 in WNW 1 mph 3 mph 85% 0.00 in 0 W/m2
00:50 61 °F 56.4 °F 29.93 in Calm   2 mph 85% 0.00 in 0 W/m2
01:00 60.3 °F 56.1 °F 29.93 in West 1 mph 4 mph 86% 0.00 in 0 W/m2
01:10 59.8 °F 55.6 °F 29.93 in NW 1 mph 3 mph 86% 0.00 in 0 W/m2
01:20 59.5 °F 56 °F 29.93 in WNW 1 mph 6 mph 88% 0.00 in 0 W/m2
01:30 59.4 °F 55.8 °F 29.93 in WNW 1 mph 6 mph 88% 0.00 in 0 W/m2
01:40 59 °F 55.4 °F 29.94 in West 2 mph 4 mph 88% 0.00 in 0 W/m2
01:50 58.8 °F 55.6 °F 29.93 in West 2 mph 4 mph 89% 0.00 in 0 W/m2
02:00 58.5 °F 55.2 °F 29.93 in West 1 mph 4 mph 89% 0.00 in 0 W/m2
02:10 58.1 °F 54.9 °F 29.94 in WNW 2 mph 5 mph 89% 0.00 in 0 W/m2
02:20 57.9 °F 55 °F 29.94 in WNW 2 mph 3 mph 90% 0.00 in 0 W/m2
02:30 57.7 °F 54.8 °F 29.94 in Calm   3 mph 90% 0.00 in 0 W/m2
02:40 57.6 °F 54.6 °F 29.94 in Calm   3 mph 90% 0.00 in 0 W/m2
02:50 57.2 °F 54.3 °F 29.94 in West 2 mph 4 mph 90% 0.00 in 0 W/m2
03:00 57 °F 54.4 °F 29.94 in West 2 mph 5 mph 91% 0.00 in 0 W/m2
03:10 57 °F 54.4 °F 29.94 in West 1 mph 4 mph 91% 0.00 in 0 W/m2
03:20 56.8 °F 53.9 °F 29.94 in WNW 1 mph 3 mph 90% 0.00 in 0 W/m2
03:30 56.7 °F 54.1 °F 29.94 in NW 1 mph 3 mph 91% 0.00 in 0 W/m2
03:40 56.8 °F 54.8 °F 29.94 in NNW 1 mph 4 mph 93% 0.00 in 0 W/m2
03:50 56.8 °F 54.8 °F 29.94 in WNW 2 mph 5 mph 93% 0.00 in 0 W/m2
04:00 56.9 °F 54.3 °F 29.93 in Calm   3 mph 91% 0.00 in 0 W/m2
04:10 56.7 °F 54.1 °F 29.93 in Calm   3 mph 91% 0.00 in 0 W/m2
04:20 56.5 °F 53.9 °F 29.93 in NW 1 mph 2 mph 91% 0.00 in 0 W/m2
04:30 56.3 °F 53.7 °F 29.93 in NW 1 mph 3 mph 91% 0.00 in 0 W/m2
04:40 56.3 °F 53.7 °F 29.93 in NW 1 mph 2 mph 91% 0.00 in 0 W/m2
04:50 56.3 °F 54.3 °F 29.93 in Calm   2 mph 93% 0.00 in 4 W/m2
05:00 56.3 °F 54.3 °F 29.93 in Calm   3 mph 93% 0.00 in 9 W/m2
05:10 56.7 °F 54.7 °F 29.93 in North 2 mph 4 mph 93% 0.00 in 15 W/m2
05:20 56.8 °F 54.2 °F 29.93 in SSW 2 mph 6 mph 91% 0.00 in 24 W/m2
05:30 57 °F 54.4 °F 29.92 in SSW 2 mph 6 mph 91% 0.00 in 32 W/m2
05:40 57.4 °F 54.8 °F 29.92 in WSW 1 mph 6 mph 91% 0.00 in 39 W/m2
05:50 57.4 °F 54.8 °F 29.93 in WNW 1 mph 5 mph 91% 0.00 in 72 W/m2
06:00 57.6 °F 55 °F 29.93 in NNW 1 mph 4 mph 91% 0.00 in 87 W/m2
06:10 57.7 °F 55.7 °F 29.93 in NNW 1 mph 3 mph 93% 0.00 in 107 W/m2
06:20 58.4 °F 56.4 °F 29.93 in NW 1 mph 3 mph 93% 0.00 in 133 W/m2
06:30 59.2 °F 56.6 °F 29.93 in NNW 1 mph 3 mph 91% 0.00 in 113 W/m2
06:40 60.1 °F 57.4 °F 29.93 in NNE 2 mph 5 mph 91% 0.00 in 181 W/m2
06:50 61 °F 58 °F 29.94 in East 1 mph 5 mph 90% 0.00 in 213 W/m2
07:00 62 °F 58.4 °F 29.94 in NE 3 mph 5 mph 88% 0.00 in 210 W/m2
07:10 63.1 °F 58.9 °F 29.94 in Calm   5 mph 86% 0.00 in 281 W/m2
07:20 64.4 °F 59.8 °F 29.94 in SE 1 mph 4 mph 85% 0.00 in 301 W/m2
07:30 65.1 °F 60.2 °F 29.94 in East 1 mph 4 mph 84% 0.00 in 342 W/m2
07:40 66.5 °F 60.5 °F 29.94 in ESE 2 mph 7 mph 81% 0.00 in 185 W/m2
07:50 67.6 °F 61.2 °F 29.94 in ESE 2 mph 5 mph 80% 0.00 in 341 W/m2
08:00 68.5 °F 61.7 °F 29.94 in ENE 2 mph 6 mph 79% 0.00 in 277 W/m2
08:10 69.4 °F 62.6 °F 29.94 in SSE 1 mph 5 mph 79% 0.00 in 478 W/m2
08:20 71.4 °F 63.8 °F 29.94 in SSW 3 mph 6 mph 77% 0.00 in 480 W/m2
08:30 73.4 °F 64.6 °F 29.94 in SSW 5 mph 7 mph 74% 0.00 in 509 W/m2
08:40 74.8 °F 64.4 °F 29.94 in South 7 mph 10 mph 70% 0.00 in 393 W/m2
08:50 75.4 °F 64.9 °F 29.94 in SSW 5 mph 10 mph 70% 0.00 in 187 W/m2
09:00 75.5 °F 65.1 °F 29.94 in SSW 6 mph 7 mph 70% 0.00 in 396 W/m2
09:10 75.9 °F 65 °F 29.94 in SW 6 mph 10 mph 69% 0.00 in 141 W/m2
09:20 76.1 °F 65.2 °F 29.95 in WSW 8 mph 13 mph 69% 0.00 in 131 W/m2
09:30 76.3 °F 64.9 °F 29.94 in WSW 8 mph 13 mph 68% 0.00 in 176 W/m2
09:40 76.8 °F 65.5 °F 29.94 in WSW 9 mph 14 mph 68% 0.01 in 222 W/m2
09:50 77.2 °F 65.8 °F 29.95 in WSW 6 mph 10 mph 68% 0.00 in 218 W/m2
10:00 77.7 °F 66.7 °F 29.95 in WSW 6 mph 12 mph 69% 0.00 in 809 W/m2
Knjazevac, Serbia
Compliments of Weather Underground - 2 mb